createdAt,value
2023-02-14T00:01:32.607Z,97394.23
2023-02-14T00:04:01.671Z,97397.48
2023-02-14T00:06:35.250Z,97399.22
2023-02-14T00:09:03.283Z,97401.45
2023-02-14T00:11:31.575Z,97402.83
2023-02-14T00:14:18.825Z,97400.80
2023-02-14T00:16:46.940Z,97404.92
2023-02-14T00:19:16.986Z,97403.06
2023-02-14T00:21:45.721Z,97396.42
2023-02-14T00:24:16.869Z,97404.80
2023-02-14T00:26:45.505Z,97407.38
2023-02-14T00:29:16.635Z,97407.73
2023-02-14T00:31:45.201Z,97402.79
2023-02-14T00:34:15.655Z,97393.59
2023-02-14T00:36:45.075Z,97393.27
2023-02-14T00:39:15.360Z,97390.19
2023-02-14T00:41:43.262Z,97377.40
2023-02-14T00:44:13.597Z,97379.11
2023-02-14T00:46:42.640Z,97376.57
2023-02-14T00:49:10.998Z,97375.91
2023-02-14T00:51:39.841Z,97371.30
2023-02-14T00:54:07.981Z,97362.94
2023-02-14T00:56:36.151Z,97360.02
2023-02-14T00:59:04.213Z,97363.58
2023-02-14T01:01:32.885Z,97359.36
2023-02-14T01:04:00.959Z,97367.04
2023-02-14T01:06:29.122Z,97368.05
2023-02-14T01:08:58.094Z,97364.61
2023-02-14T01:11:28.204Z,97361.54
2023-02-14T01:13:58.685Z,97354.02
2023-02-14T01:16:28.672Z,97343.80
2023-02-14T01:19:00.326Z,97335.81
2023-02-14T01:21:33.541Z,97318.77
2023-02-14T01:24:05.653Z,97316.91
2023-02-14T01:26:35.103Z,97316.58
2023-02-14T01:29:05.351Z,97314.20
2023-02-14T01:31:35.351Z,97321.86
2023-02-14T01:34:04.548Z,97324.58
2023-02-14T01:36:39.193Z,97313.65
2023-02-14T01:39:15.494Z,97305.63
2023-02-14T01:41:50.579Z,97303.58
2023-02-14T01:44:18.566Z,97300.31
2023-02-14T01:46:46.855Z,97299.45
2023-02-14T01:49:22.933Z,97294.33
2023-02-14T01:51:57.534Z,97285.80
2023-02-14T01:54:27.568Z,97289.90
2023-02-14T01:57:00.690Z,97290.42
2023-02-14T01:59:36.663Z,97286.84
2023-02-14T02:02:06.197Z,97285.48
2023-02-14T02:04:40.650Z,97280.19
2023-02-14T02:07:23.007Z,97280.89
2023-02-14T02:09:56.047Z,97280.38
2023-02-14T02:12:30.972Z,97279.02
2023-02-14T02:15:00.408Z,97278.15
2023-02-14T02:17:52.876Z,97275.40
2023-02-14T02:20:48.656Z,97270.98
2023-02-14T02:23:44.505Z,97268.42
2023-02-14T02:26:35.226Z,97265.48
2023-02-14T02:29:22.335Z,97268.17
2023-02-14T02:32:16.380Z,97272.59
2023-02-14T02:35:21.476Z,97276.84
2023-02-14T02:38:14.740Z,97275.96
2023-02-14T02:41:01.642Z,97275.44
2023-02-14T02:43:36.961Z,97274.22
2023-02-14T02:46:30.209Z,97279.13
2023-02-14T02:49:40.136Z,97273.98
2023-02-14T02:52:56.976Z,97273.08
2023-02-14T02:56:09.241Z,97277.10
2023-02-14T02:58:43.073Z,97269.88
2023-02-14T03:02:02.613Z,97272.76
2023-02-14T03:04:52.999Z,97275.44
2023-02-14T03:07:40.475Z,97279.34
2023-02-14T03:10:13.794Z,97275.41
2023-02-14T03:12:57.518Z,97268.06
2023-02-14T03:15:41.638Z,97263.94
2023-02-14T03:18:29.936Z,97261.20
2023-02-14T03:21:06.649Z,97265.98
2023-02-14T03:23:40.494Z,97267.37
2023-02-14T03:26:14.315Z,97273.34
2023-02-14T03:29:10.199Z,97271.09
2023-02-14T03:32:23.100Z,97268.98
2023-02-14T03:35:03.223Z,97270.92
2023-02-14T03:37:41.792Z,97273.39
2023-02-14T03:40:28.392Z,97274.20
2023-02-14T03:43:03.047Z,97267.31
2023-02-14T03:45:40.639Z,97266.96
2023-02-14T03:48:12.584Z,97269.34
2023-02-14T03:50:44.986Z,97269.33
2023-02-14T03:53:19.252Z,97265.88
2023-02-14T03:56:12.680Z,97267.77
2023-02-14T03:58:47.252Z,97267.79
2023-02-14T04:01:23.366Z,97260.80
2023-02-14T04:03:54.844Z,97260.64
2023-02-14T04:06:23.416Z,97258.08
2023-02-14T04:08:51.919Z,97255.20
2023-02-14T04:11:20.003Z,97253.88
2023-02-14T04:13:48.029Z,97259.20
2023-02-14T04:16:16.197Z,97262.63
2023-02-14T04:19:02.907Z,97257.20
2023-02-14T04:21:30.954Z,97257.90
2023-02-14T04:23:58.890Z,97257.05
2023-02-14T04:26:26.889Z,97253.66
2023-02-14T04:28:54.865Z,97254.36
2023-02-14T04:31:23.071Z,97258.30
2023-02-14T04:33:51.428Z,97257.10
2023-02-14T04:36:19.427Z,97251.46
2023-02-14T04:38:47.250Z,97249.89
2023-02-14T04:41:15.340Z,97249.58
2023-02-14T04:43:43.407Z,97250.09
2023-02-14T04:46:11.435Z,97253.00
2023-02-14T04:48:39.594Z,97260.17
2023-02-14T04:51:07.670Z,97262.91
2023-02-14T04:53:40.257Z,97264.27
2023-02-14T04:56:08.290Z,97259.48
2023-02-14T04:58:36.179Z,97253.28
2023-02-14T05:01:04.220Z,97249.36
2023-02-14T05:03:32.123Z,97250.38
2023-02-14T05:06:00.002Z,97252.27
2023-02-14T05:08:27.956Z,97251.07
2023-02-14T05:10:55.918Z,97254.98
2023-02-14T05:13:24.182Z,97261.63
2023-02-14T05:15:52.378Z,97262.28
2023-02-14T05:18:20.576Z,97263.80
2023-02-14T05:20:52.467Z,97260.17
2023-02-14T05:23:22.367Z,97261.00
2023-02-14T05:25:52.208Z,97267.44
2023-02-14T05:28:20.196Z,97271.47
2023-02-14T05:30:48.310Z,97273.13
2023-02-14T05:33:16.227Z,97272.90
2023-02-14T05:35:44.868Z,97270.59
2023-02-14T05:38:14.004Z,97268.31
2023-02-14T05:40:42.834Z,97266.88
2023-02-14T05:43:10.811Z,97263.59
2023-02-14T05:45:38.799Z,97255.01
2023-02-14T05:48:06.727Z,97253.79
2023-02-14T05:50:35.003Z,97251.67
2023-02-14T05:53:02.989Z,97254.36
2023-02-14T05:55:31.032Z,97249.54
2023-02-14T05:57:59.029Z,97241.48
2023-02-14T06:00:27.083Z,97243.00
2023-02-14T06:02:55.235Z,97253.24
2023-02-14T06:05:23.303Z,97260.23
2023-02-14T06:07:51.899Z,97268.13
2023-02-14T06:10:22.051Z,97270.17
2023-02-14T06:12:52.513Z,97261.64
2023-02-14T06:15:21.254Z,97254.81
2023-02-14T06:17:54.877Z,97259.27
2023-02-14T06:20:24.421Z,97268.51
2023-02-14T06:22:52.948Z,97273.99
2023-02-14T06:25:22.707Z,97265.99
2023-02-14T06:27:50.741Z,97262.27
2023-02-14T06:30:19.256Z,97266.91
2023-02-14T06:32:47.327Z,97275.98
2023-02-14T06:35:16.220Z,97276.68
2023-02-14T06:37:45.459Z,97280.11
2023-02-14T06:40:14.876Z,97276.53
2023-02-14T06:42:42.960Z,97273.13
2023-02-14T06:45:11.233Z,97274.68
2023-02-14T06:47:39.979Z,97284.05
2023-02-14T06:50:11.653Z,97289.99
2023-02-14T06:52:40.052Z,97285.67
2023-02-14T06:55:09.778Z,97285.45
2023-02-14T06:57:37.978Z,97286.10
2023-02-14T07:00:07.454Z,97285.71
2023-02-14T07:02:35.838Z,97281.73
2023-02-14T07:05:04.497Z,97287.48
2023-02-14T07:07:32.985Z,97288.99
2023-02-14T07:10:01.192Z,97288.97
2023-02-14T07:12:29.302Z,97283.80
2023-02-14T07:14:57.344Z,97282.40
2023-02-14T07:17:25.760Z,97287.34
2023-02-14T07:19:53.902Z,97288.17
2023-02-14T07:22:22.435Z,97277.89
2023-02-14T07:24:50.468Z,97284.86
2023-02-14T07:27:18.655Z,97289.98
2023-02-14T07:29:46.810Z,97289.13
2023-02-14T07:32:14.941Z,97281.97
2023-02-14T07:34:43.083Z,97277.91
2023-02-14T07:37:11.758Z,97280.48
2023-02-14T07:39:39.634Z,97277.61
2023-02-14T07:42:08.447Z,97274.05
2023-02-14T07:44:40.148Z,97281.24
2023-02-14T07:47:09.890Z,97283.65
2023-02-14T07:49:38.136Z,97283.50
2023-02-14T07:52:06.554Z,97282.84
2023-02-14T07:54:54.825Z,97276.99
2023-02-14T07:57:22.856Z,97282.15
2023-02-14T07:59:50.738Z,97286.94
2023-02-14T08:02:20.792Z,97283.18
2023-02-14T08:04:48.889Z,97281.46
2023-02-14T08:07:16.897Z,97282.80
2023-02-14T08:09:44.880Z,97282.45
2023-02-14T08:12:31.299Z,97281.08
2023-02-14T08:15:19.215Z,97279.52
2023-02-14T08:17:47.162Z,97281.22
2023-02-14T08:20:15.049Z,97282.23
2023-02-14T08:22:43.071Z,97285.64
2023-02-14T08:25:11.060Z,97286.14
2023-02-14T08:27:39.582Z,97284.02
2023-02-14T08:30:08.842Z,97280.91
2023-02-14T08:32:37.162Z,97278.13
2023-02-14T08:35:05.395Z,97273.30
2023-02-14T08:37:33.379Z,97279.41
2023-02-14T08:40:01.526Z,97278.66
2023-02-14T08:42:30.031Z,97282.17
2023-02-14T08:44:57.999Z,97281.29
2023-02-14T08:47:26.025Z,97284.48
2023-02-14T08:49:53.986Z,97281.89
2023-02-14T08:52:21.954Z,97285.05
2023-02-14T08:54:50.263Z,97287.52
2023-02-14T08:57:18.297Z,97288.65
2023-02-14T08:59:46.300Z,97292.48
2023-02-14T09:02:16.388Z,97294.94
2023-02-14T09:04:45.059Z,97298.61
2023-02-14T09:07:13.758Z,97302.02
2023-02-14T09:09:41.949Z,97303.70
2023-02-14T09:12:10.825Z,97304.02
2023-02-14T09:14:43.972Z,97303.69
2023-02-14T09:17:13.882Z,97307.45
2023-02-14T09:19:41.839Z,97314.83
2023-02-14T09:22:11.521Z,97310.06
2023-02-14T09:24:41.502Z,97309.66
2023-02-14T09:27:09.614Z,97312.20
2023-02-14T09:29:37.776Z,97311.67
2023-02-14T09:32:05.900Z,97308.07
2023-02-14T09:34:35.325Z,97305.15
2023-02-14T09:37:06.056Z,97306.52
2023-02-14T09:39:36.065Z,97302.20
2023-02-14T09:42:37.110Z,97300.27
2023-02-14T09:45:09.769Z,97296.73
2023-02-14T09:48:02.770Z,97298.23
2023-02-14T09:50:35.486Z,97296.29
2023-02-14T09:53:13.988Z,97303.77
2023-02-14T09:56:20.630Z,97305.43
2023-02-14T09:59:01.216Z,97306.73
2023-02-14T10:01:36.798Z,97302.69
2023-02-14T10:04:41.193Z,97301.40
2023-02-14T10:07:31.403Z,97300.80
2023-02-14T10:10:04.041Z,97300.04
2023-02-14T10:12:37.867Z,97297.85
2023-02-14T10:15:34.001Z,97304.34
2023-02-14T10:18:14.866Z,97303.65
2023-02-14T10:20:46.047Z,97305.20
2023-02-14T10:23:24.765Z,97302.56
2023-02-14T10:26:12.937Z,97302.68
2023-02-14T10:28:44.545Z,97295.50
2023-02-14T10:31:29.422Z,97292.41
2023-02-14T10:34:10.389Z,97287.17
2023-02-14T10:36:55.891Z,97287.15
2023-02-14T10:40:01.512Z,97280.33
2023-02-14T10:42:45.169Z,97279.05
2023-02-14T10:45:35.287Z,97275.95
2023-02-14T10:48:16.796Z,97273.64
2023-02-14T10:50:58.791Z,97270.79
2023-02-14T10:53:47.364Z,97268.39
2023-02-14T10:56:21.716Z,97260.94
2023-02-14T10:58:52.641Z,97258.59
2023-02-14T11:01:20.777Z,97253.00
2023-02-14T11:03:56.106Z,97249.86
2023-02-14T11:06:24.494Z,97241.92
2023-02-14T11:08:52.443Z,97234.96
2023-02-14T11:11:20.416Z,97234.88
2023-02-14T11:13:48.947Z,97235.61
2023-02-14T11:16:37.094Z,97230.05
2023-02-14T11:19:14.618Z,97222.65
2023-02-14T11:21:45.542Z,97223.98
2023-02-14T11:24:36.051Z,97224.45
2023-02-14T11:27:17.241Z,97226.52
2023-02-14T11:29:52.348Z,97225.54
2023-02-14T11:32:31.131Z,97224.08
2023-02-14T11:35:04.018Z,97222.38
2023-02-14T11:37:38.300Z,97213.33
2023-02-14T11:40:07.648Z,97208.64
2023-02-14T11:42:41.735Z,97206.70
2023-02-14T11:45:31.456Z,97205.52
2023-02-14T11:48:17.770Z,97206.35
2023-02-14T11:51:15.735Z,97207.51
2023-02-14T11:53:56.527Z,97206.48
2023-02-14T11:56:24.605Z,97200.58
2023-02-14T11:58:55.772Z,97191.39
2023-02-14T12:01:26.864Z,97192.61
2023-02-14T12:03:57.541Z,97192.46
2023-02-14T12:06:29.023Z,97195.45
2023-02-14T12:09:22.215Z,97186.88
2023-02-14T12:12:02.717Z,97176.48
2023-02-14T12:14:33.815Z,97177.50
2023-02-14T12:17:21.656Z,97182.23
2023-02-14T12:20:11.838Z,97172.36
2023-02-14T12:23:24.032Z,97165.52
2023-02-14T12:26:01.520Z,97168.79
2023-02-14T12:28:38.664Z,97162.32
2023-02-14T12:31:12.571Z,97166.08
2023-02-14T12:33:41.374Z,97169.69
2023-02-14T12:36:14.694Z,97170.33
2023-02-14T12:39:00.791Z,97169.41
2023-02-14T12:42:05.774Z,97162.44
2023-02-14T12:44:46.148Z,97161.06
2023-02-14T12:47:41.797Z,97167.73
2023-02-14T12:50:33.897Z,97171.02
2023-02-14T12:53:26.381Z,97167.95
2023-02-14T12:56:15.683Z,97169.60
2023-02-14T12:58:54.538Z,97167.33
2023-02-14T13:01:39.023Z,97174.02
2023-02-14T13:04:20.801Z,97169.35
2023-02-14T13:06:57.367Z,97170.63
2023-02-14T13:09:28.474Z,97175.83
2023-02-14T13:12:45.976Z,97179.25
2023-02-14T13:15:40.629Z,97183.45
2023-02-14T13:18:33.641Z,97184.54
2023-02-14T13:21:05.211Z,97183.45
2023-02-14T13:23:56.092Z,97188.01
2023-02-14T13:26:34.992Z,97192.70
2023-02-14T13:29:10.664Z,97195.55
2023-02-14T13:31:39.269Z,97197.59
2023-02-14T13:34:28.196Z,97199.49
2023-02-14T13:36:58.920Z,97199.44
2023-02-14T13:39:37.781Z,97198.18
2023-02-14T13:42:07.338Z,97199.94
2023-02-14T13:44:53.105Z,97199.71
2023-02-14T13:47:27.126Z,97198.91
2023-02-14T13:49:57.034Z,97196.77
2023-02-14T13:52:47.423Z,97199.52
2023-02-14T13:55:26.303Z,97200.88
2023-02-14T13:58:24.293Z,97206.28
2023-02-14T14:00:53.589Z,97208.77
2023-02-14T14:03:27.786Z,97206.30
2023-02-14T14:06:10.935Z,97206.52
2023-02-14T14:08:49.371Z,97204.65
2023-02-14T14:11:26.876Z,97203.55
2023-02-14T14:14:14.628Z,97200.79
2023-02-14T14:16:57.670Z,97199.34
2023-02-14T14:19:25.798Z,97198.57
2023-02-14T14:22:01.978Z,97196.44
2023-02-14T14:24:36.133Z,97195.50
2023-02-14T14:27:07.257Z,97194.88
2023-02-14T14:29:39.051Z,97196.50
2023-02-14T14:32:15.489Z,97191.48
2023-02-14T14:34:52.678Z,97188.15
2023-02-14T14:37:23.516Z,97188.45
2023-02-14T14:39:57.602Z,97188.88
2023-02-14T14:42:30.679Z,97191.02
2023-02-14T14:45:06.569Z,97190.28
2023-02-14T14:47:46.136Z,97188.70
2023-02-14T14:50:24.705Z,97186.23
2023-02-14T14:53:00.303Z,97184.04
2023-02-14T14:55:45.206Z,97182.52
2023-02-14T14:58:37.854Z,97181.04
2023-02-14T15:01:10.936Z,97183.18
2023-02-14T15:03:39.738Z,97184.98
2023-02-14T15:06:13.988Z,97187.09
2023-02-14T15:08:42.402Z,97181.65
2023-02-14T15:11:39.018Z,97185.45
2023-02-14T15:14:12.132Z,97189.98
2023-02-14T15:16:50.638Z,97192.73
2023-02-14T15:19:33.391Z,97194.06
2023-02-14T15:22:07.744Z,97189.06
2023-02-14T15:24:38.289Z,97186.11
2023-02-14T15:27:15.829Z,97189.36
2023-02-14T15:30:00.815Z,97189.67
2023-02-14T15:32:32.254Z,97196.48
2023-02-14T15:35:03.459Z,97193.03
2023-02-14T15:37:32.383Z,97200.20
2023-02-14T15:40:00.703Z,97202.63
2023-02-14T15:42:33.700Z,97205.20
2023-02-14T15:45:14.081Z,97204.71
2023-02-14T15:47:45.976Z,97208.98
2023-02-14T15:50:18.312Z,97216.34
2023-02-14T15:52:48.031Z,97217.23
2023-02-14T15:55:20.106Z,97220.83
2023-02-14T15:57:57.366Z,97224.06
2023-02-14T16:00:26.850Z,97226.64
2023-02-14T16:03:00.410Z,97227.03
2023-02-14T16:05:29.927Z,97229.85
2023-02-14T16:08:29.516Z,97236.08
2023-02-14T16:11:03.443Z,97237.18
2023-02-14T16:13:33.577Z,97238.80
2023-02-14T16:16:08.826Z,97236.29
2023-02-14T16:18:52.928Z,97236.74
2023-02-14T16:21:36.505Z,97239.58
2023-02-14T16:24:07.485Z,97239.50
2023-02-14T16:26:38.239Z,97240.59
2023-02-14T16:29:11.015Z,97244.73
2023-02-14T16:32:06.129Z,97239.63
2023-02-14T16:34:31.954Z,97242.40
2023-02-14T16:37:07.428Z,97242.25
2023-02-14T16:39:36.110Z,97247.63
2023-02-14T16:42:04.926Z,97252.34
2023-02-14T16:44:33.100Z,97257.36
2023-02-14T16:47:01.992Z,97261.89
2023-02-14T16:49:30.134Z,97262.46
2023-02-14T16:51:58.316Z,97255.36
2023-02-14T16:54:26.935Z,97250.83
2023-02-14T16:57:03.538Z,97250.23
2023-02-14T16:59:31.783Z,97253.75
2023-02-14T17:01:59.885Z,97251.07
2023-02-14T17:04:27.927Z,97251.27
2023-02-14T17:06:57.546Z,97251.84
2023-02-14T17:09:29.896Z,97248.66
2023-02-14T17:12:04.354Z,97250.41
2023-02-14T17:14:39.792Z,97254.90
2023-02-14T17:17:07.814Z,97258.69
2023-02-14T17:19:36.636Z,97266.19
2023-02-14T17:22:05.316Z,97265.98
2023-02-14T17:24:33.410Z,97268.15
2023-02-14T17:27:01.395Z,97267.78
2023-02-14T17:29:29.477Z,97262.63
2023-02-14T17:31:57.822Z,97263.63
2023-02-14T17:34:26.008Z,97267.73
2023-02-14T17:36:54.107Z,97268.09
2023-02-14T17:39:22.793Z,97268.96
2023-02-14T17:41:50.744Z,97273.23
2023-02-14T17:44:18.638Z,97275.63
2023-02-14T17:46:46.874Z,97275.97
2023-02-14T17:49:14.945Z,97274.27
2023-02-14T17:51:42.951Z,97276.34
2023-02-14T17:54:12.316Z,97276.52
2023-02-14T17:56:40.406Z,97272.44
2023-02-14T17:59:08.385Z,97267.48
2023-02-14T18:01:36.476Z,97272.64
2023-02-14T18:04:06.075Z,97270.29
2023-02-14T18:06:34.040Z,97267.05
2023-02-14T18:09:05.804Z,97268.98
2023-02-14T18:11:33.921Z,97267.98
2023-02-14T18:14:03.767Z,97268.54
2023-02-14T18:16:31.785Z,97269.41
2023-02-14T18:19:04.290Z,97274.19
2023-02-14T18:21:35.651Z,97274.54
2023-02-14T18:24:04.193Z,97279.34
2023-02-14T18:26:33.223Z,97284.83
2023-02-14T18:29:06.569Z,97286.18
2023-02-14T18:31:36.791Z,97281.23
2023-02-14T18:34:05.169Z,97274.55
2023-02-14T18:36:35.579Z,97274.03
2023-02-14T18:39:05.060Z,97271.48
2023-02-14T18:41:33.404Z,97270.09
2023-02-14T18:44:01.692Z,97265.90
2023-02-14T18:46:33.876Z,97267.04
2023-02-14T18:49:04.247Z,97265.98
2023-02-14T18:51:35.674Z,97266.63
2023-02-14T18:54:04.617Z,97268.30
2023-02-14T18:56:35.852Z,97271.17
2023-02-14T18:59:07.145Z,97274.75
2023-02-14T19:01:38.664Z,97275.73
2023-02-14T19:04:09.034Z,97276.02
2023-02-14T19:06:37.020Z,97278.88
2023-02-14T19:09:12.602Z,97280.71
2023-02-14T19:11:41.004Z,97280.52
2023-02-14T19:14:10.698Z,97280.12
2023-02-14T19:16:44.149Z,97280.05
2023-02-14T19:19:12.606Z,97281.05
2023-02-14T19:21:40.754Z,97280.71
2023-02-14T19:24:09.095Z,97283.30
2023-02-14T19:26:40.825Z,97285.52
2023-02-14T19:29:15.760Z,97287.56
2023-02-14T19:31:48.248Z,97288.44
2023-02-14T19:34:29.606Z,97290.53
2023-02-14T19:37:00.657Z,97290.73
2023-02-14T19:39:30.061Z,97291.77
2023-02-14T19:41:59.072Z,97290.78
2023-02-14T19:44:29.426Z,97289.98
2023-02-14T19:47:01.907Z,97290.19
2023-02-14T19:49:32.152Z,97287.31
2023-02-14T19:52:00.208Z,97286.98
2023-02-14T19:54:30.134Z,97289.74
2023-02-14T19:56:59.000Z,97286.17
2023-02-14T19:59:27.992Z,97289.79
2023-02-14T20:01:57.606Z,97292.71
2023-02-14T20:04:29.093Z,97286.21
2023-02-14T20:06:57.757Z,97287.26
2023-02-14T20:09:26.021Z,97283.15
2023-02-14T20:11:56.334Z,97283.85
2023-02-14T20:14:27.897Z,97283.35
2023-02-14T20:16:58.338Z,97283.87
2023-02-14T20:19:30.464Z,97284.58
2023-02-14T20:21:59.471Z,97291.24
2023-02-14T20:24:30.775Z,97296.22
2023-02-14T20:27:00.602Z,97292.98
2023-02-14T20:29:29.077Z,97293.18
2023-02-14T20:32:00.099Z,97295.60
2023-02-14T20:34:28.529Z,97294.92
2023-02-14T20:36:59.300Z,97297.84
2023-02-14T20:39:33.315Z,97297.64
2023-02-14T20:42:02.014Z,97301.69
2023-02-14T20:44:30.785Z,97305.23
2023-02-14T20:46:58.957Z,97307.77
2023-02-14T20:49:28.909Z,97310.48
2023-02-14T20:51:58.942Z,97310.61
2023-02-14T20:54:28.340Z,97310.41
2023-02-14T20:56:57.941Z,97303.52
2023-02-14T20:59:29.103Z,97302.83
2023-02-14T21:01:58.842Z,97302.98
2023-02-14T21:04:27.742Z,97299.86
2023-02-14T21:06:57.804Z,97300.70
2023-02-14T21:09:25.920Z,97298.11
2023-02-14T21:11:54.148Z,97298.94
2023-02-14T21:14:22.351Z,97296.71
2023-02-14T21:16:50.407Z,97291.56
2023-02-14T21:19:18.864Z,97292.90
2023-02-14T21:21:47.090Z,97296.66
2023-02-14T21:24:16.267Z,97290.48
2023-02-14T21:26:45.174Z,97292.29
2023-02-14T21:29:13.178Z,97295.02
2023-02-14T21:31:42.486Z,97296.05
2023-02-14T21:34:11.198Z,97298.28
2023-02-14T21:36:39.109Z,97297.42
2023-02-14T21:39:07.572Z,97296.23
2023-02-14T21:41:36.548Z,97291.44
2023-02-14T21:44:05.521Z,97293.35
2023-02-14T21:46:38.319Z,97291.71
2023-02-14T21:49:25.056Z,97292.41
2023-02-14T21:51:53.076Z,97292.61
2023-02-14T21:54:21.173Z,97289.06
2023-02-14T21:56:49.914Z,97287.91
2023-02-14T21:59:18.018Z,97288.29
2023-02-14T22:01:46.054Z,97284.73
2023-02-14T22:04:14.214Z,97285.29
2023-02-14T22:06:43.056Z,97287.40
2023-02-14T22:09:13.875Z,97287.10
2023-02-14T22:11:42.126Z,97285.09
2023-02-14T22:14:10.268Z,97282.91
2023-02-14T22:16:38.475Z,97284.14
2023-02-14T22:19:08.040Z,97286.39
2023-02-14T22:21:36.294Z,97286.77
2023-02-14T22:24:04.742Z,97288.52
2023-02-14T22:26:38.722Z,97285.29
2023-02-14T22:29:09.609Z,97286.52
2023-02-14T22:31:41.030Z,97289.09
2023-02-14T22:34:12.061Z,97284.14
2023-02-14T22:36:41.968Z,97280.70
2023-02-14T22:39:14.442Z,97283.58
2023-02-14T22:41:43.344Z,97286.30
2023-02-14T22:44:13.285Z,97285.05
2023-02-14T22:46:41.430Z,97280.90
2023-02-14T22:49:09.427Z,97274.88
2023-02-14T22:51:39.724Z,97278.09
2023-02-14T22:54:12.414Z,97279.77
2023-02-14T22:56:48.360Z,97280.45
2023-02-14T22:59:22.234Z,97283.52
2023-02-14T23:01:51.833Z,97282.65
2023-02-14T23:04:24.588Z,97280.96
2023-02-14T23:06:53.685Z,97278.77
2023-02-14T23:09:22.710Z,97278.47
2023-02-14T23:11:51.196Z,97281.76
2023-02-14T23:14:37.956Z,97285.92
2023-02-14T23:17:24.647Z,97279.36
2023-02-14T23:20:11.818Z,97280.33
2023-02-14T23:22:41.133Z,97283.20
2023-02-14T23:25:11.384Z,97284.33
2023-02-14T23:27:47.311Z,97282.04
2023-02-14T23:30:17.699Z,97280.95
2023-02-14T23:32:45.873Z,97282.05
2023-02-14T23:35:14.068Z,97279.05
2023-02-14T23:37:42.112Z,97282.55
2023-02-14T23:40:10.471Z,97283.30
2023-02-14T23:42:38.639Z,97279.93
2023-02-14T23:45:26.313Z,97285.11
2023-02-14T23:47:54.409Z,97288.08
2023-02-14T23:50:22.525Z,97292.90
2023-02-14T23:52:50.551Z,97296.85
2023-02-14T23:55:18.660Z,97294.16
2023-02-14T23:57:46.781Z,97293.85
